Najaf, Iraq
Current Conditions -  °F | °C
As of 1:00 PM on Saturday 20 Dec 2014 (Local Time) from ORNI Reporting Station
Scattered Clouds Scattered Clouds  
Wind Chill: 64°   Ceiling: Unl
Heat Index: 64°   Visibility: 4mi
Dew Point: 48°   Wind: 12mph
Humidity: 56%   Direction: 320°NW
Pressure: 30"   Gusts: NA
Location:  31.98°N, 44.32°E
Report Text: ORNI 201000Z 32010KT 6000 SCT040 18/09 Q1016 NOSIG
Loading
Personal Weather Stations






























Interactive Weather Map New forecast layout! Learn more

10-Day Weather Forecast

Advertisements
Track Severe Weather on mobile